Time;durP1;ratioP1;P1;durP2;ratioP2;P2;SDS_P1;SDS_P2;PMS_P1;PMS_P2;Temp;Humidity;BMP_temperature;BMP_pressure;BME280_temperature;BME280_humidity;BME280_pressure;Samples;Min_cycle;Max_cycle;Signal;HPM_P1;HPM_P2
2023/04/30 00:01:08;;;;;;;;;;;;;;;17.88;59.99;96805.94;4200657;28;5702;-72
2023/04/30 00:03:11;;;;;;;;;;;;;;;17.83;60.10;96821.91;4202034;28;5835;-72
2023/04/30 00:05:14;;;;;;;;;;;;;;;17.75;59.96;96814.25;4202295;28;5779;-72
2023/04/30 00:07:17;;;;;;;;;;;;;;;17.76;59.96;96797.16;4212114;28;5867;-72
2023/04/30 00:09:20;;;;;;;;;;;;;;;17.77;59.85;96806.00;4184854;28;6317;-72
2023/04/30 00:11:24;;;;;;;;;;;;;;;17.74;59.90;96789.38;4198380;28;5684;-73
2023/04/30 00:13:28;;;;;;;;;;;;;;;17.68;59.73;96800.22;4200487;28;5701;-73
2023/04/30 00:15:31;;;;;;;;;;;;;;;17.53;59.70;96789.19;4198942;28;5767;-72
2023/04/30 00:17:34;;;;;;;;;;;;;;;17.53;59.76;96781.19;4198141;28;5693;-75
2023/04/30 00:19:37;;;;;;;;;;;;;;;17.59;59.61;96781.06;4201788;28;5700;-74
2023/04/30 00:21:40;;;;;;;;;;;;;;;17.65;59.55;96776.59;4201020;28;5225;-75
2023/04/30 00:23:43;;;;;;;;;;;;;;;17.69;59.56;96775.13;4201634;28;5842;-73
2023/04/30 00:25:46;;;;;;;;;;;;;;;17.70;59.44;96779.41;4200971;28;5692;-72
2023/04/30 00:27:49;;;;;;;;;;;;;;;17.70;59.77;96779.41;4201468;28;5855;-73
2023/04/30 00:29:53;;;;;;;;;;;;;;;17.72;59.27;96777.31;4190897;28;5840;-73
2023/04/30 00:31:56;;;;;;;;;;;;;;;17.71;59.56;96779.19;4200537;28;5693;-72
2023/04/30 00:33:59;;;;;;;;;;;;;;;17.71;59.18;96778.38;4200009;28;6232;-73
2023/04/30 00:36:02;;;;;;;;;;;;;;;17.70;59.27;96776.75;4200643;28;5752;-73
2023/04/30 00:38:05;;;;;;;;;;;;;;;17.69;59.21;96783.16;4201131;28;5752;-72
2023/04/30 00:40:09;;;;;;;;;;;;;;;17.72;59.39;96780.00;4200809;28;5693;-72
2023/04/30 00:42:12;;;;;;;;;;;;;;;17.70;59.33;96774.06;4198038;28;5751;-73
2023/04/30 00:44:15;;;;;;;;;;;;;;;17.70;59.45;96772.22;4200373;28;5677;-73
2023/04/30 00:46:19;;;;;;;;;;;;;;;17.70;59.04;96776.75;4191973;28;5832;-73
2023/04/30 00:48:22;;;;;;;;;;;;;;;17.69;59.24;96775.94;4184629;28;5703;-73
2023/04/30 00:50:25;;;;;;;;;;;;;;;17.66;59.25;96770.19;4187605;28;5697;-73
2023/04/30 00:52:29;;;;;;;;;;;;;;;17.64;59.14;96761.63;4200734;28;5814;-72
2023/04/30 00:54:32;;;;;;;;;;;;;;;17.67;58.93;96761.16;4200486;28;5709;-72
2023/04/30 00:56:35;;;;;;;;;;;;;;;17.69;58.94;96754.56;4190541;28;5714;-73
2023/04/30 00:58:38;;;;;;;;;;;;;;;17.69;58.71;96759.91;4190250;28;5681;-72
2023/04/30 01:00:45;;;;;;;;;;;;;;;17.66;58.83;96759.50;4195564;28;5729;-73
2023/04/30 01:02:50;;;;;;;;;;;;;;;17.66;58.78;96754.97;4200877;28;5689;-72
2023/04/30 01:04:54;;;;;;;;;;;;;;;17.67;58.62;96761.16;4200726;28;5767;-73
2023/04/30 01:06:57;;;;;;;;;;;;;;;17.64;58.59;96756.28;4199919;28;6411;-72
2023/04/30 01:09:00;;;;;;;;;;;;;;;17.67;58.55;96761.16;4200872;28;5708;-72
2023/04/30 01:11:14;;;;;;;;;;;;;;;17.67;58.62;96750.47;4199348;28;5784;-73
2023/04/30 01:13:25;;;;;;;;;;;;;;;17.67;58.42;96751.28;4199710;28;5716;-73
2023/04/30 01:15:36;;;;;;;;;;;;;;;17.67;58.47;96750.47;4201372;28;5837;-72
2023/04/30 01:17:46;;;;;;;;;;;;;;;17.66;58.28;96754.16;4207757;28;5689;-72
2023/04/30 01:19:50;;;;;;;;;;;;;;;17.64;58.29;96749.06;4200763;28;5787;-72
2023/04/30 01:21:56;;;;;;;;;;;;;;;17.62;58.34;96753.84;4195017;28;5883;-73
2023/04/30 01:24:16;;;;;;;;;;;;;;;17.62;58.47;96751.16;4189527;28;5705;-72
2023/04/30 01:26:29;;;;;;;;;;;;;;;17.58;58.63;96742.00;4204787;28;5816;-73
2023/04/30 01:28:36;;;;;;;;;;;;;;;17.58;58.63;96743.88;4191263;28;5770;-72
2023/04/30 01:30:40;;;;;;;;;;;;;;;17.58;58.57;96741.19;4199608;28;5847;-71
2023/04/30 01:32:43;;;;;;;;;;;;;;;17.58;58.39;96743.88;4200199;28;6677;-71
2023/04/30 01:34:46;;;;;;;;;;;;;;;17.60;58.42;96741.78;4200397;28;5752;-71
2023/04/30 01:37:00;;;;;;;;;;;;;;;17.57;58.47;96748.41;4194008;28;5720;-71
2023/04/30 01:39:17;;;;;;;;;;;;;;;17.52;58.47;96742.13;4200717;28;5684;-72
2023/04/30 01:41:29;;;;;;;;;;;;;;;17.53;58.21;96749.09;4185301;28;5806;-72
2023/04/30 01:43:46;;;;;;;;;;;;;;;17.51;58.46;96745.88;4200707;28;5676;-72
2023/04/30 01:46:02;;;;;;;;;;;;;;;17.49;58.37;96742.63;4196836;28;5860;-72
2023/04/30 01:48:18;;;;;;;;;;;;;;;17.44;58.42;96736.13;4184052;28;5849;-73
2023/04/30 01:50:28;;;;;;;;;;;;;;;17.46;58.35;96739.38;4183918;28;5092;-72
2023/04/30 01:52:40;;;;;;;;;;;;;;;17.49;58.24;96737.28;4191145;28;5696;-73
2023/04/30 01:54:49;;;;;;;;;;;;;;;17.41;58.17;96741.13;4194218;28;5706;-72
2023/04/30 01:57:02;;;;;;;;;;;;;;;17.38;58.11;96731.72;4196604;28;5721;-73
2023/04/30 01:59:08;;;;;;;;;;;;;;;17.35;57.86;96745.56;4200138;28;6171;-71
2023/04/30 02:01:26;;;;;;;;;;;;;;;17.31;57.96;96744.41;4199541;28;7842;-72
2023/04/30 02:03:29;;;;;;;;;;;;;;;17.29;58.04;96738.50;4199441;28;5727;-73
2023/04/30 02:05:31;;;;;;;;;;;;;;;17.29;57.93;96743.84;4200410;28;5824;-72
2023/04/30 02:07:40;;;;;;;;;;;;;;;17.26;58.18;96738.97;4199851;28;5767;-72
2023/04/30 02:09:43;;;;;;;;;;;;;;;17.29;58.14;96743.84;4183961;28;5706;-72
2023/04/30 02:11:45;;;;;;;;;;;;;;;17.32;57.94;96738.00;4188427;28;5701;-72
2023/04/30 02:13:48;;;;;;;;;;;;;;;17.35;57.99;96740.22;4199280;28;5709;-72
2023/04/30 02:15:52;;;;;;;;;;;;;;;17.37;57.88;96743.47;4199512;28;6370;-72
2023/04/30 02:17:55;;;;;;;;;;;;;;;17.38;57.93;96739.75;4200463;28;5763;-72
2023/04/30 02:19:58;;;;;;;;;;;;;;;17.37;57.82;96746.16;4200268;28;5799;-72
2023/04/30 02:22:01;;;;;;;;;;;;;;;17.34;57.81;96735.94;4200294;28;5755;-73
2023/04/30 02:24:05;;;;;;;;;;;;;;;17.38;57.91;96731.72;4199221;28;5696;-71
2023/04/30 02:26:07;;;;;;;;;;;;;;;17.39;57.89;96728.00;4199478;28;5701;-73
2023/04/30 02:28:10;;;;;;;;;;;;;;;17.42;57.77;96732.88;4186829;28;5917;-72
2023/04/30 02:30:13;;;;;;;;;;;;;;;17.41;57.69;96731.25;4192961;28;5795;-73
2023/04/30 02:32:17;;;;;;;;;;;;;;;17.43;57.81;96723.81;4194551;28;5704;-72
2023/04/30 02:34:20;;;;;;;;;;;;;;;17.45;57.67;96728.94;4203196;28;5704;-72
2023/04/30 02:36:23;;;;;;;;;;;;;;;17.44;57.78;96732.63;4202535;28;5114;-72
2023/04/30 02:38:26;;;;;;;;;;;;;;;17.43;57.86;96736.34;4203155;28;5685;-72
2023/04/30 02:40:29;;;;;;;;;;;;;;;17.45;57.94;96734.28;4197248;28;5710;-72
2023/04/30 02:42:31;;;;;;;;;;;;;;;17.46;57.82;96727.88;4202606;28;5713;-72
2023/04/30 02:44:35;;;;;;;;;;;;;;;17.50;57.64;96730.88;4203176;28;5687;-72
2023/04/30 02:46:37;;;;;;;;;;;;;;;17.51;57.67;96735.16;4202546;28;5692;-72
2023/04/30 02:48:41;;;;;;;;;;;;;;;17.50;57.75;96733.56;4202574;28;5692;-73
2023/04/30 02:50:44;;;;;;;;;;;;;;;17.50;57.75;96723.69;4202970;28;6370;-72
2023/04/30 02:52:47;;;;;;;;;;;;;;;17.52;57.71;96726.09;4203107;28;6374;-72
2023/04/30 02:54:50;;;;;;;;;;;;;;;17.51;57.79;96729.81;4194141;28;5778;-72
2023/04/30 02:56:53;;;;;;;;;;;;;;;17.51;57.60;96724.47;4195601;28;5673;-73
2023/04/30 02:58:56;;;;;;;;;;;;;;;17.51;57.84;96729.81;4202296;28;5697;-72
2023/04/30 03:00:59;;;;;;;;;;;;;;;17.51;57.78;96721.81;4193476;28;5787;-72
2023/04/30 03:03:02;;;;;;;;;;;;;;;17.52;57.74;96726.09;4202987;28;5692;-71
2023/04/30 03:05:08;;;;;;;;;;;;;;;17.50;57.76;96728.22;4202496;28;5740;-71
2023/04/30 03:07:11;;;;;;;;;;;;;;;17.51;57.86;96729.81;4202669;28;5692;-72
2023/04/30 03:09:14;;;;;;;;;;;;;;;17.50;57.71;96722.88;4201234;28;5763;-72
2023/04/30 03:11:16;;;;;;;;;;;;;;;17.50;57.80;96726.34;4201711;28;5795;-72
2023/04/30 03:13:19;;;;;;;;;;;;;;;17.52;57.63;96723.44;4196432;28;5808;-72
2023/04/30 03:15:22;;;;;;;;;;;;;;;17.52;57.85;96718.91;4201238;28;5700;-72
2023/04/30 03:17:25;;;;;;;;;;;;;;;17.52;57.96;96718.09;4202824;28;5924;-73
2023/04/30 03:19:28;;;;;;;;;;;;;;;17.53;57.77;96715.16;4202072;28;5775;-72
2023/04/30 03:21:33;;;;;;;;;;;;;;;17.53;57.89;96723.19;4202461;28;5700;-71
2023/04/30 03:23:35;;;;;;;;;;;;;;;17.53;57.98;96717.84;4201693;28;6865;-71
2023/04/30 03:25:38;;;;;;;;;;;;;;;17.54;57.99;96721.31;4200855;28;5690;-72
2023/04/30 03:27:41;;;;;;;;;;;;;;;17.54;57.86;96715.97;4202143;28;5767;-72
2023/04/30 03:29:44;;;;;;;;;;;;;;;17.53;57.86;96720.50;4202172;28;5685;-72
2023/04/30 03:31:47;;;;;;;;;;;;;;;17.54;57.85;96715.97;4200985;28;5747;-72
2023/04/30 03:33:50;;;;;;;;;;;;;;;17.54;57.80;96714.13;4207817;28;5773;-72
2023/04/30 03:35:52;;;;;;;;;;;;;;;17.56;57.79;96711.22;4213876;28;5700;-72
2023/04/30 03:37:57;;;;;;;;;;;;;;;17.54;57.81;96707.97;4200993;28;5692;-72
2023/04/30 03:39:59;;;;;;;;;;;;;;;17.52;57.82;96710.88;4185964;28;5778;-71
2023/04/30 03:42:03;;;;;;;;;;;;;;;17.51;57.83;96713.78;4198248;28;5693;-73
2023/04/30 03:44:07;;;;;;;;;;;;;;;17.52;57.94;96716.22;4191640;28;5738;-72
2023/04/30 03:46:10;;;;;;;;;;;;;;;17.53;57.81;96717.03;4193898;28;5665;-72
2023/04/30 03:48:15;;;;;;;;;;;;;;;17.53;57.70;96719.69;4201214;28;5705;-72
2023/04/30 03:50:19;;;;;;;;;;;;;;;17.51;57.71;96717.28;4202088;28;5684;-72
2023/04/30 03:52:22;;;;;;;;;;;;;;;17.53;57.72;96717.03;4202221;28;5673;-72
2023/04/30 03:54:26;;;;;;;;;;;;;;;17.52;57.53;96724.25;4200877;28;5703;-73
2023/04/30 03:56:29;;;;;;;;;;;;;;;17.51;57.51;96724.47;4200059;28;5775;-71
2023/04/30 03:58:32;;;;;;;;;;;;;;;17.51;57.76;96724.47;4201307;28;5689;-71
2023/04/30 04:00:35;;;;;;;;;;;;;;;17.49;57.69;96723.91;4201558;28;5732;-71
2023/04/30 04:02:38;;;;;;;;;;;;;;;17.49;57.76;96724.72;4201248;28;5697;-71
2023/04/30 04:04:40;;;;;;;;;;;;;;;17.51;57.54;96727.16;4201096;28;5700;-72
2023/04/30 04:06:43;;;;;;;;;;;;;;;17.51;57.59;96735.16;4209034;28;5696;-72
2023/04/30 04:08:46;;;;;;;;;;;;;;;17.51;57.73;96735.16;4200916;28;5681;-72
2023/04/30 04:10:50;;;;;;;;;;;;;;;17.51;57.62;96737.84;4201550;28;5850;-73
2023/04/30 04:12:53;;;;;;;;;;;;;;;17.51;57.65;96735.97;4200667;28;5704;-72
2023/04/30 04:14:56;;;;;;;;;;;;;;;17.53;57.56;96738.41;4185126;28;5158;-72
2023/04/30 04:17:00;;;;;;;;;;;;;;;17.53;57.47;96746.44;4199826;28;5717;-72
2023/04/30 04:19:03;;;;;;;;;;;;;;;17.51;57.61;96740.53;4201509;28;5692;-73
2023/04/30 04:21:06;;;;;;;;;;;;;;;17.51;57.75;96745.88;4201546;28;5680;-73
2023/04/30 04:23:10;;;;;;;;;;;;;;;17.52;57.63;96750.16;4200476;28;5784;-74
2023/04/30 04:25:12;;;;;;;;;;;;;;;17.53;57.70;96754.44;4200595;28;5735;-72
2023/04/30 04:27:17;;;;;;;;;;;;;;;17.52;57.45;96752.84;4200156;28;5697;-72
2023/04/30 04:29:20;;;;;;;;;;;;;;;17.51;57.78;96745.88;4202161;28;5697;-73
2023/04/30 04:31:23;;;;;;;;;;;;;;;17.50;57.60;96744.25;4206410;28;5828;-73
2023/04/30 04:33:26;;;;;;;;;;;;;;;17.50;57.77;96749.59;4201268;28;5693;-72
2023/04/30 04:35:29;;;;;;;;;;;;;;;17.49;57.86;96743.44;4201277;28;5705;-73
2023/04/30 04:37:32;;;;;;;;;;;;;;;17.48;57.86;96744.50;4204143;28;5670;-72
2023/04/30 04:39:36;;;;;;;;;;;;;;;17.48;57.47;96749.84;4206583;28;5696;-72
2023/04/30 04:41:40;;;;;;;;;;;;;;;17.48;57.45;96749.84;4199372;28;5800;-72
2023/04/30 04:43:44;;;;;;;;;;;;;;;17.49;57.62;96743.44;4187617;28;5114;-72
2023/04/30 04:45:47;;;;;;;;;;;;;;;17.46;57.62;96742.06;4200707;28;5876;-73
2023/04/30 04:47:50;;;;;;;;;;;;;;;17.50;57.71;96752.25;4200149;28;5708;-73
2023/04/30 04:49:54;;;;;;;;;;;;;;;17.50;57.68;96746.91;4200486;28;5680;-73
2023/04/30 04:51:57;;;;;;;;;;;;;;;17.52;57.50;96758.19;4201001;28;5681;-73
2023/04/30 04:54:00;;;;;;;;;;;;;;;17.52;57.77;96760.84;4208188;28;5782;-73
2023/04/30 04:56:03;;;;;;;;;;;;;;;17.52;57.61;96763.53;4202459;28;5729;-73
2023/04/30 04:58:06;;;;;;;;;;;;;;;17.51;57.52;96756.56;4197686;28;5696;-72
2023/04/30 05:00:11;;;;;;;;;;;;;;;17.52;57.50;96761.66;4200133;28;5752;-73
2023/04/30 05:02:14;;;;;;;;;;;;;;;17.51;57.30;96762.72;4200499;28;6374;-72
2023/04/30 05:04:17;;;;;;;;;;;;;;;17.51;57.64;96769.91;4200558;28;5685;-73
2023/04/30 05:06:20;;;;;;;;;;;;;;;17.47;57.66;96766.91;4200592;28;5784;-73
2023/04/30 05:08:23;;;;;;;;;;;;;;;17.48;57.77;96770.41;4199977;28;5816;-73
2023/04/30 05:10:26;;;;;;;;;;;;;;;17.50;57.68;96769.09;4200755;28;5693;-71
2023/04/30 05:12:29;;;;;;;;;;;;;;;17.50;57.85;96769.09;4199520;28;5705;-72
2023/04/30 05:14:32;;;;;;;;;;;;;;;17.52;57.83;96769.69;4200163;28;5102;-72
2023/04/30 05:16:36;;;;;;;;;;;;;;;17.53;57.64;96765.13;4198845;28;5775;-73
2023/04/30 05:18:40;;;;;;;;;;;;;;;17.53;57.53;96767.81;4199877;28;5809;-72
2023/04/30 05:20:43;;;;;;;;;;;;;;;17.53;57.64;96767.81;4200371;28;5765;-73
2023/04/30 05:22:46;;;;;;;;;;;;;;;17.53;57.50;96770.50;4199729;28;5801;-73
2023/04/30 05:24:51;;;;;;;;;;;;;;;17.55;57.65;96765.72;4200587;28;5696;-72
2023/04/30 05:26:54;;;;;;;;;;;;;;;17.56;57.58;96764.69;4216194;28;6285;-72
2023/04/30 05:28:57;;;;;;;;;;;;;;;17.55;57.63;96763.84;4199610;28;5696;-72
2023/04/30 05:31:00;;;;;;;;;;;;;;;17.55;57.53;96763.03;4194374;28;5879;-72
2023/04/30 05:33:04;;;;;;;;;;;;;;;17.57;57.64;96766.31;4198882;28;6401;-73
2023/04/30 05:35:08;;;;;;;;;;;;;;;17.57;57.54;96774.31;4190699;28;5787;-72
2023/04/30 05:37:11;;;;;;;;;;;;;;;17.57;57.45;96764.44;4200767;28;5700;-73
2023/04/30 05:39:14;;;;;;;;;;;;;;;17.61;57.53;96762.09;4199694;28;5685;-76
2023/04/30 05:41:17;;;;;;;;;;;;;;;17.62;57.55;96764.53;4189116;28;5714;-75
2023/04/30 05:43:19;;;;;;;;;;;;;;;17.63;57.39;96765.34;4192178;28;5692;-73
2023/04/30 05:45:22;;;;;;;;;;;;;;;17.64;57.32;96772.31;4199559;28;5775;-74
2023/04/30 05:47:25;;;;;;;;;;;;;;;17.63;57.64;96768.81;4200605;28;5689;-73
2023/04/30 05:49:30;;;;;;;;;;;;;;;17.63;57.41;96768.81;4200715;28;5815;-73
2023/04/30 05:51:34;;;;;;;;;;;;;;;17.63;57.52;96773.34;4200895;28;5697;-73
2023/04/30 05:53:37;;;;;;;;;;;;;;;17.61;57.52;96767.44;4199586;28;6391;-73
2023/04/30 05:55:40;;;;;;;;;;;;;;;17.62;57.82;96772.56;4199297;28;6425;-73
2023/04/30 05:57:43;;;;;;;;;;;;;;;17.62;57.51;96763.72;4198423;28;5840;-73
2023/04/30 05:59:46;;;;;;;;;;;;;;;17.57;57.78;96769.78;4200573;28;5814;-73
2023/04/30 06:01:49;;;;;;;;;;;;;;;17.57;57.69;96766.31;4203402;28;5689;-73
2023/04/30 06:03:52;;;;;;;;;;;;;;;17.59;57.58;96758.84;4202072;28;5697;-73
2023/04/30 06:05:56;;;;;;;;;;;;;;;17.61;57.50;96762.09;4203388;28;5700;-72
2023/04/30 06:07:59;;;;;;;;;;;;;;;17.61;57.58;96767.44;4203724;28;5712;-73
2023/04/30 06:10:02;;;;;;;;;;;;;;;17.62;57.65;96761.03;4202561;28;5787;-73
2023/04/30 06:12:05;;;;;;;;;;;;;;;17.63;57.42;96773.34;4200871;28;5709;-72
2023/04/30 06:14:08;;;;;;;;;;;;;;;17.66;57.45;96770.19;4203153;28;5697;-73
2023/04/30 06:16:11;;;;;;;;;;;;;;;17.68;57.33;96768.94;4202137;28;5118;-72
2023/04/30 06:18:14;;;;;;;;;;;;;;;17.70;57.17;96771.41;4194488;28;5809;-73
2023/04/30 06:20:17;;;;;;;;;;;;;;;17.71;57.29;96773.84;4186819;28;5805;-73
2023/04/30 06:22:21;;;;;;;;;;;;;;;17.71;57.09;96773.84;4199876;28;5831;-72
2023/04/30 06:24:26;;;;;;;;;;;;;;;17.71;57.27;96778.38;4202582;28;5783;-72
2023/04/30 06:26:29;;;;;;;;;;;;;;;17.74;57.27;96775.22;4201330;28;5792;-73
2023/04/30 06:28:32;;;;;;;;;;;;;;;17.78;57.15;96770.19;4202624;28;5768;-73
2023/04/30 06:30:37;;;;;;;;;;;;;;;17.79;57.27;96783.34;4203073;28;5095;-73
2023/04/30 06:32:40;;;;;;;;;;;;;;;17.79;57.26;96778.00;4203463;28;5692;-73
2023/04/30 06:34:43;;;;;;;;;;;;;;;17.81;57.07;96773.22;4201221;28;5696;-73
2023/04/30 06:36:45;;;;;;;;;;;;;;;17.81;57.09;96775.06;4196337;28;5783;-73
2023/04/30 06:38:50;;;;;;;;;;;;;;;17.82;57.14;96787.41;4205071;28;5676;-73
2023/04/30 06:40:53;;;;;;;;;;;;;;;17.82;57.25;96782.84;4199861;28;5090;-72
2023/04/30 06:42:55;;;;;;;;;;;;;;;17.84;57.14;96785.28;4207406;28;7717;-73
2023/04/30 06:44:58;;;;;;;;;;;;;;;17.85;57.12;96782.38;4199219;28;5809;-72
2023/04/30 06:47:01;;;;;;;;;;;;;;;17.86;57.08;96781.31;4192876;28;5756;-72
2023/04/30 06:49:04;;;;;;;;;;;;;;;17.89;57.16;96780.03;4200050;28;5692;-72
2023/04/30 06:51:07;;;;;;;;;;;;;;;17.91;57.08;96780.63;4190284;28;5710;-71
2023/04/30 06:53:12;;;;;;;;;;;;;;;17.91;57.16;96780.63;4202227;28;5800;-72
2023/04/30 06:55:16;;;;;;;;;;;;;;;17.92;57.02;96775.03;4206904;28;5843;-72
2023/04/30 06:57:19;;;;;;;;;;;;;;;17.93;57.20;96765.94;4209546;28;5774;-71
2023/04/30 06:59:22;;;;;;;;;;;;;;;17.95;56.98;96774.53;4207625;28;5663;-72
2023/04/30 07:01:25;;;;;;;;;;;;;;;18.00;56.96;96771.94;4202859;28;5713;-71
2023/04/30 07:03:28;;;;;;;;;;;;;;;18.01;56.96;96773.59;4201822;28;5775;-72
2023/04/30 07:05:31;;;;;;;;;;;;;;;18.04;56.87;96772.28;4201606;28;6193;-72
2023/04/30 07:07:34;;;;;;;;;;;;;;;18.07;56.84;96766.44;4200961;28;5804;-72
2023/04/30 07:09:36;;;;;;;;;;;;;;;18.09;56.76;96771.56;4200671;28;5765;-73
2023/04/30 07:11:41;;;;;;;;;;;;;;;18.09;56.98;96768.88;4189176;28;5791;-73
2023/04/30 07:13:44;;;;;;;;;;;;;;;18.12;56.90;96769.22;4199638;28;5776;-72
2023/04/30 07:15:47;;;;;;;;;;;;;;;18.17;56.83;96773.84;4197914;28;5735;-72
2023/04/30 07:17:50;;;;;;;;;;;;;;;18.21;56.88;96774.97;4199639;28;5689;-73
2023/04/30 07:19:55;;;;;;;;;;;;;;;18.23;56.72;96781.72;4200393;28;5694;-73
2023/04/30 07:21:59;;;;;;;;;;;;;;;18.21;56.72;96783.00;4200983;28;5826;-72
2023/04/30 07:24:01;;;;;;;;;;;;;;;18.21;56.70;96777.66;4201174;28;5752;-72
2023/04/30 07:26:04;;;;;;;;;;;;;;;18.20;56.68;96776.03;4198173;28;5784;-73
2023/04/30 07:28:09;;;;;;;;;;;;;;;18.22;56.78;96779.28;4197549;28;5082;-73
2023/04/30 07:30:12;;;;;;;;;;;;;;;18.19;56.87;96780.56;4192556;28;5765;-73
2023/04/30 07:32:15;;;;;;;;;;;;;;;18.14;56.84;96782.38;4200082;28;5832;-73
2023/04/30 07:34:18;;;;;;;;;;;;;;;18.13;56.83;96783.41;4200560;28;6729;-73
2023/04/30 07:36:21;;;;;;;;;;;;;;;18.10;56.93;96779.34;4199739;28;5673;-73
2023/04/30 07:38:24;;;;;;;;;;;;;;;18.08;56.96;96781.44;4200721;28;5696;-72
2023/04/30 07:40:27;;;;;;;;;;;;;;;18.09;56.91;96779.59;4213597;28;5656;-72
2023/04/30 07:42:38;;;;;;;;;;;;;;;18.09;56.84;96774.22;4208959;28;5717;-71
2023/04/30 07:44:42;;;;;;;;;;;;;;;18.09;56.94;96784.94;4192054;28;6477;-71
2023/04/30 07:46:46;;;;;;;;;;;;;;;18.12;57.08;96784.44;4189137;28;5847;-71
2023/04/30 07:48:49;;;;;;;;;;;;;;;18.14;57.03;96779.69;4191223;28;6385;-72
2023/04/30 07:50:51;;;;;;;;;;;;;;;18.13;56.91;96770.84;4195944;28;5831;-72
2023/04/30 07:52:54;;;;;;;;;;;;;;;18.14;56.85;96777.00;4199132;28;5704;-72
2023/04/30 07:54:57;;;;;;;;;;;;;;;18.14;56.95;96779.69;4194676;28;5955;-71
2023/04/30 07:57:00;;;;;;;;;;;;;;;18.13;56.69;96778.06;4189598;28;5706;-72
2023/04/30 07:59:03;;;;;;;;;;;;;;;18.13;56.82;96770.84;4189219;28;5864;-72
2023/04/30 08:01:07;;;;;;;;;;;;;;;18.12;56.73;96769.22;4191762;28;6571;-72
2023/04/30 08:03:11;;;;;;;;;;;;;;;18.14;56.85;96782.38;4195381;28;5696;-72
2023/04/30 08:05:14;;;;;;;;;;;;;;;18.15;56.83;96767.94;4193916;28;5892;-71
2023/04/30 08:07:17;;;;;;;;;;;;;;;18.17;56.78;96766.63;4196037;28;5674;-71
2023/04/30 08:09:19;;;;;;;;;;;;;;;18.18;56.80;96767.44;4194312;28;5767;-72
2023/04/30 08:11:22;;;;;;;;;;;;;;;18.20;56.69;96766.13;4193537;28;6600;-71
2023/04/30 08:13:25;;;;;;;;;;;;;;;18.23;56.70;96764.84;4194493;28;5902;-72
2023/04/30 08:15:28;;;;;;;;;;;;;;;18.28;56.59;96772.97;4196715;28;5106;-72
2023/04/30 08:17:34;;;;;;;;;;;;;;;18.28;56.39;96767.63;4197668;28;5773;-72
2023/04/30 08:19:37;;;;;;;;;;;;;;;18.29;56.60;96774.59;4190940;28;5791;-72
2023/04/30 08:21:40;;;;;;;;;;;;;;;18.29;56.58;96775.41;4189501;28;5741;-72
2023/04/30 08:23:43;;;;;;;;;;;;;;;18.31;56.35;96773.28;4190058;28;5910;-71
2023/04/30 08:25:46;;;;;;;;;;;;;;;18.37;56.36;96771.53;4194304;28;6539;-71
2023/04/30 08:27:49;;;;;;;;;;;;;;;18.42;56.52;96768.91;4192829;28;5907;-72
2023/04/30 08:29:52;;;;;;;;;;;;;;;18.46;56.02;96772.75;4195665;28;5771;-71
2023/04/30 08:31:55;;;;;;;;;;;;;;;18.46;56.21;96775.41;4195565;28;5682;-72
2023/04/30 08:33:59;;;;;;;;;;;;;;;18.47;56.10;96774.38;4192290;28;5787;-72
2023/04/30 08:36:03;;;;;;;;;;;;;;;18.46;56.43;96786.13;4187814;28;5790;-71
2023/04/30 08:38:05;;;;;;;;;;;;;;;18.47;56.27;96785.06;4183152;28;6370;-71
2023/04/30 08:40:10;;;;;;;;;;;;;;;18.49;56.43;96784.81;4193708;28;5663;-70
2023/04/30 08:42:15;;;;;;;;;;;;;;;18.51;56.08;96782.72;4192863;28;5769;-71
2023/04/30 08:44:21;;;;;;;;;;;;;;;18.54;56.07;96782.22;4200534;28;5544;-72
2023/04/30 08:46:25;;;;;;;;;;;;;;;18.57;55.98;96785.22;4191623;28;5865;-71
2023/04/30 08:48:29;;;;;;;;;;;;;;;18.56;56.01;96788.13;4189662;28;5796;-72
2023/04/30 08:50:33;;;;;;;;;;;;;;;18.56;55.90;96788.13;4206782;28;5769;-72
2023/04/30 08:52:38;;;;;;;;;;;;;;;18.57;55.93;96793.25;4207606;28;5697;-71
2023/04/30 08:54:44;;;;;;;;;;;;;;;18.58;56.03;96794.88;4205963;28;5775;-71
2023/04/30 08:56:47;;;;;;;;;;;;;;;18.62;56.03;96797.88;4206904;28;5668;-71
2023/04/30 08:58:50;;;;;;;;;;;;;;;18.66;56.01;96795.53;4205687;28;5946;-71
2023/04/30 09:00:53;;;;;;;;;;;;;;;18.65;56.05;96793.94;4200353;28;5824;-71
2023/04/30 09:02:56;;;;;;;;;;;;;;;18.67;55.88;96795.28;4193800;28;5749;-71
2023/04/30 09:04:59;;;;;;;;;;;;;;;18.63;55.54;96792.28;4207239;28;5783;-72
2023/04/30 09:07:04;;;;;;;;;;;;;;;18.60;55.88;96792.78;4205475;28;7827;-72
2023/04/30 09:09:12;;;;;;;;;;;;;;;18.60;55.89;96792.78;4191032;28;5794;-72
2023/04/30 09:11:25;;;;;;;;;;;;;;;18.63;55.67;96797.63;4198924;28;5667;-72
2023/04/30 09:13:40;;;;;;;;;;;;;;;18.66;55.69;96799.03;4199460;28;5870;-72
2023/04/30 09:15:44;;;;;;;;;;;;;;;18.70;55.36;96799.38;4205220;28;5667;-72
2023/04/30 09:17:47;;;;;;;;;;;;;;;18.68;55.40;96794.25;4201186;28;5732;-72
2023/04/30 09:19:50;;;;;;;;;;;;;;;18.67;55.34;96797.97;4207274;28;5689;-73
2023/04/30 09:21:53;;;;;;;;;;;;;;;18.70;55.34;96799.38;4208716;28;5818;-73
2023/04/30 09:24:00;;;;;;;;;;;;;;;18.73;55.24;96801.56;4206751;28;5679;-73
2023/04/30 09:26:03;;;;;;;;;;;;;;;18.78;55.60;96798.94;4199006;28;5664;-71
2023/04/30 09:28:10;;;;;;;;;;;;;;;18.82;55.39;96797.41;4204802;28;5673;-71
2023/04/30 09:30:31;;;;;;;;;;;;;;;18.87;55.52;96794.81;4199103;28;5750;-73
2023/04/30 09:32:33;;;;;;;;;;;;;;;18.88;55.25;96794.56;4203264;28;5683;-72
2023/04/30 09:34:36;;;;;;;;;;;;;;;18.90;55.24;96792.44;4207238;28;5770;-72
2023/04/30 09:36:53;;;;;;;;;;;;;;;18.95;55.27;96794.41;4206318;28;5682;-73
2023/04/30 09:39:05;;;;;;;;;;;;;;;18.99;55.09;96803.56;4210842;28;5775;-72
2023/04/30 09:41:25;;;;;;;;;;;;;;;19.04;55.08;96798.28;4197126;28;5776;-72
2023/04/30 09:43:28;;;;;;;;;;;;;;;19.05;54.96;96805.25;4206047;28;5915;-72
2023/04/30 09:45:41;;;;;;;;;;;;;;;19.07;54.70;96813.84;4204856;28;5685;-72
2023/04/30 09:47:45;;;;;;;;;;;;;;;19.09;55.03;96809.06;4198930;28;5856;-73
2023/04/30 09:49:50;;;;;;;;;;;;;;;19.10;55.11;96808.00;4201190;28;5700;-72
2023/04/30 09:51:56;;;;;;;;;;;;;;;19.10;54.99;96808.00;4209997;28;5810;-72
2023/04/30 09:54:03;;;;;;;;;;;;;;;19.08;55.08;96802.06;4199236;28;5792;-73
2023/04/30 09:56:08;;;;;;;;;;;;;;;19.10;55.13;96808.00;4199779;28;5820;-73
2023/04/30 09:58:12;;;;;;;;;;;;;;;19.07;55.19;96803.13;4199175;28;5696;-73
2023/04/30 10:00:16;;;;;;;;;;;;;;;19.03;55.19;96807.38;4200250;28;5841;-72
2023/04/30 10:02:22;;;;;;;;;;;;;;;18.98;54.94;96809.97;4199492;28;5708;-72
2023/04/30 10:04:27;;;;;;;;;;;;;;;18.91;54.97;96812.00;4199090;28;5836;-73
2023/04/30 10:06:34;;;;;;;;;;;;;;;18.90;54.87;96802.34;4186962;28;5762;-70
2023/04/30 10:08:41;;;;;;;;;;;;;;;18.89;54.80;96806.06;4193904;28;5758;-69
2023/04/30 10:10:50;;;;;;;;;;;;;;;18.82;54.89;96800.09;4188875;28;5796;-69
2023/04/30 10:12:56;;;;;;;;;;;;;;;18.81;55.14;96806.50;4195536;28;5772;-69
2023/04/30 10:15:06;;;;;;;;;;;;;;;18.80;55.16;96810.22;4187318;28;5793;-68
2023/04/30 10:17:14;;;;;;;;;;;;;;;18.81;54.81;96803.84;4192319;28;5849;-70
2023/04/30 10:19:20;;;;;;;;;;;;;;;18.85;55.00;96807.63;4201550;28;5843;-70
2023/04/30 10:21:26;;;;;;;;;;;;;;;18.84;54.83;96811.38;4191040;28;5710;-71
2023/04/30 10:23:30;;;;;;;;;;;;;;;18.85;55.24;96810.31;4191958;28;6192;-71
2023/04/30 10:25:33;;;;;;;;;;;;;;;18.88;54.84;96810.63;4188246;28;5843;-71
2023/04/30 10:27:37;;;;;;;;;;;;;;;18.91;54.81;96803.97;4192330;28;5718;-70
2023/04/30 10:29:40;;;;;;;;;;;;;;;18.95;54.94;96804.31;4187639;28;5776;-71
2023/04/30 10:31:46;;;;;;;;;;;;;;;18.99;54.92;96805.41;4199714;28;5746;-71
2023/04/30 10:33:57;;;;;;;;;;;;;;;19.02;54.80;96802.25;4194152;28;5733;-71
2023/04/30 10:36:04;;;;;;;;;;;;;;;19.02;54.87;96805.72;4191143;28;5721;-71
2023/04/30 10:38:13;;;;;;;;;;;;;;;19.01;54.84;96804.09;4196260;28;5765;-70
2023/04/30 10:40:16;;;;;;;;;;;;;;;19.01;54.81;96804.09;4194771;28;5812;-68
2023/04/30 10:42:19;;;;;;;;;;;;;;;19.01;54.73;96800.63;4202308;28;5673;-72
2023/04/30 10:44:26;;;;;;;;;;;;;;;19.03;55.03;96801.22;4187813;28;5811;-71
2023/04/30 10:46:29;;;;;;;;;;;;;;;19.04;54.92;96797.47;4185242;28;5848;-72
2023/04/30 10:48:34;;;;;;;;;;;;;;;19.08;54.64;96798.59;4188072;28;6636;-71
2023/04/30 10:50:42;;;;;;;;;;;;;;;19.08;54.98;96795.91;4187865;28;6423;-71
2023/04/30 10:52:48;;;;;;;;;;;;;;;19.13;55.03;96793.28;4197548;28;5683;-69
2023/04/30 10:54:50;;;;;;;;;;;;;;;19.13;54.71;96787.94;4191489;28;5769;-71
2023/04/30 10:56:55;;;;;;;;;;;;;;;19.14;54.87;96798.44;4198045;28;5803;-71